createdAt,value
2018-09-26T00:01:13.435Z,53.07
2018-09-26T00:03:46.216Z,53.05
2018-09-26T00:06:15.442Z,53.57
2018-09-26T00:08:44.346Z,53.17
2018-09-26T00:11:13.263Z,53.28
2018-09-26T00:13:42.263Z,53.77
2018-09-26T00:16:11.420Z,53.75
2018-09-26T00:18:40.388Z,54.22
2018-09-26T00:21:09.319Z,54.15
2018-09-26T00:23:38.228Z,54.56
2018-09-26T00:26:07.227Z,54.84
2018-09-26T00:28:36.115Z,55.13
2018-09-26T00:31:05.043Z,55.25
2018-09-26T00:33:33.998Z,56.20
2018-09-26T00:36:02.916Z,56.17
2018-09-26T00:38:38.256Z,56.36
2018-09-26T00:41:07.409Z,56.72
2018-09-26T00:43:36.294Z,56.14
2018-09-26T00:46:05.246Z,56.75
2018-09-26T00:48:34.172Z,56.31
2018-09-26T00:51:03.096Z,56.11
2018-09-26T00:53:32.079Z,55.67
2018-09-26T00:56:01.017Z,55.73
2018-09-26T00:58:29.987Z,56.00
2018-09-26T01:00:58.903Z,55.79
2018-09-26T01:03:27.730Z,55.68
2018-09-26T01:05:56.632Z,55.60
2018-09-26T01:08:25.581Z,55.40
2018-09-26T01:10:54.587Z,55.56
2018-09-26T01:13:23.481Z,55.73
2018-09-26T01:15:52.592Z,55.79
2018-09-26T01:18:21.527Z,55.81
2018-09-26T01:20:51.421Z,56.03
2018-09-26T01:23:20.262Z,56.29
2018-09-26T01:25:49.163Z,56.35
2018-09-26T01:28:17.990Z,56.83
2018-09-26T01:30:46.879Z,56.89
2018-09-26T01:33:15.775Z,56.79
2018-09-26T01:35:44.784Z,56.32
2018-09-26T01:38:13.674Z,56.66
2018-09-26T01:40:42.606Z,56.69
2018-09-26T01:43:11.492Z,57.03
2018-09-26T01:45:40.388Z,57.58
2018-09-26T01:48:09.260Z,57.41
2018-09-26T01:50:38.163Z,57.57
2018-09-26T01:53:07.246Z,57.63
2018-09-26T01:55:36.168Z,57.79
2018-09-26T01:58:06.448Z,57.86
2018-09-26T02:00:35.322Z,58.04
2018-09-26T02:03:04.299Z,58.38
2018-09-26T02:05:33.268Z,58.41
2018-09-26T02:08:02.122Z,58.25
2018-09-26T02:10:30.993Z,58.25
2018-09-26T02:12:59.991Z,57.97
2018-09-26T02:15:28.938Z,57.58
2018-09-26T02:17:57.863Z,58.24
2018-09-26T02:20:26.947Z,57.78
2018-09-26T02:22:55.815Z,57.92
2018-09-26T02:25:24.699Z,57.33
2018-09-26T02:27:53.703Z,58.00
2018-09-26T02:30:22.559Z,58.01
2018-09-26T02:32:51.495Z,58.08
2018-09-26T02:35:20.384Z,57.78
2018-09-26T02:37:49.260Z,58.18
2018-09-26T02:40:18.122Z,57.77
2018-09-26T02:42:48.365Z,58.33
2018-09-26T02:45:17.199Z,57.87
2018-09-26T02:47:46.114Z,58.08
2018-09-26T02:50:15.976Z,58.62
2018-09-26T02:52:44.822Z,58.08
2018-09-26T02:55:13.714Z,58.02
2018-09-26T02:57:42.608Z,57.98
2018-09-26T03:00:11.470Z,58.04
2018-09-26T03:02:40.283Z,57.76
2018-09-26T03:05:09.139Z,58.29
2018-09-26T03:07:37.996Z,58.01
2018-09-26T03:10:08.259Z,57.98
2018-09-26T03:12:37.079Z,58.19
2018-09-26T03:15:06.122Z,58.23
2018-09-26T03:17:35.089Z,58.20
2018-09-26T03:20:04.017Z,58.12
2018-09-26T03:22:32.846Z,58.51
2018-09-26T03:25:01.757Z,58.59
2018-09-26T03:27:30.628Z,58.71
2018-09-26T03:29:59.538Z,58.79
2018-09-26T03:32:29.691Z,58.17
2018-09-26T03:34:58.544Z,58.07
2018-09-26T03:37:27.439Z,57.47
2018-09-26T03:39:56.345Z,56.87
2018-09-26T03:42:25.267Z,56.38
2018-09-26T03:44:54.104Z,56.46
2018-09-26T03:47:23.089Z,56.20
2018-09-26T03:49:51.967Z,55.84
2018-09-26T03:52:20.813Z,55.96
2018-09-26T03:54:49.744Z,56.25
2018-09-26T03:57:18.615Z,56.32
2018-09-26T03:59:47.538Z,56.02
2018-09-26T04:02:16.558Z,56.07
2018-09-26T04:04:45.487Z,55.97
2018-09-26T04:07:14.365Z,55.85
2018-09-26T04:09:43.278Z,56.28
2018-09-26T04:12:12.160Z,56.07
2018-09-26T04:14:41.029Z,56.34
2018-09-26T04:17:10.008Z,55.90
2018-09-26T04:19:38.857Z,56.07
2018-09-26T04:22:07.739Z,56.25
2018-09-26T04:24:36.692Z,56.89
2018-09-26T04:27:05.703Z,56.73
2018-09-26T04:29:34.547Z,56.24
2018-09-26T04:32:04.700Z,56.27
2018-09-26T04:34:33.579Z,56.55
2018-09-26T04:37:02.461Z,56.80
2018-09-26T04:39:32.623Z,56.82
2018-09-26T04:42:01.510Z,57.02
2018-09-26T04:44:30.459Z,57.29
2018-09-26T04:46:59.470Z,57.81
2018-09-26T04:49:28.318Z,57.70
2018-09-26T04:51:57.175Z,58.11
2018-09-26T04:54:27.736Z,58.34
2018-09-26T04:56:56.602Z,58.20
2018-09-26T04:59:25.500Z,58.38
2018-09-26T05:01:54.437Z,58.44
2018-09-26T05:04:23.351Z,58.01
2018-09-26T05:06:52.314Z,57.86
2018-09-26T05:09:21.212Z,57.80
2018-09-26T05:11:50.170Z,57.74
2018-09-26T05:14:19.023Z,57.33
2018-09-26T05:16:47.922Z,57.10
2018-09-26T05:19:16.859Z,57.16
2018-09-26T05:21:45.779Z,56.33
2018-09-26T05:24:14.710Z,55.60
2018-09-26T05:26:43.612Z,55.27
2018-09-26T05:29:12.470Z,54.42
2018-09-26T05:31:41.422Z,54.89
2018-09-26T05:34:10.310Z,54.13
2018-09-26T05:36:39.211Z,53.61
2018-09-26T05:39:10.920Z,54.22
2018-09-26T05:41:39.811Z,53.73
2018-09-26T05:44:08.883Z,53.06
2018-09-26T05:46:37.782Z,52.79
2018-09-26T05:49:06.767Z,53.09
2018-09-26T05:51:35.578Z,52.33
2018-09-26T05:54:04.524Z,51.93
2018-09-26T05:56:33.413Z,51.99
2018-09-26T05:59:04.642Z,51.97
2018-09-26T06:01:33.539Z,51.74
2018-09-26T06:04:02.626Z,51.83
2018-09-26T06:06:31.477Z,50.44
2018-09-26T06:09:00.437Z,51.13
2018-09-26T06:11:29.430Z,51.84
2018-09-26T06:13:58.435Z,51.30
2018-09-26T06:16:27.392Z,51.40
2018-09-26T06:18:56.311Z,50.25
2018-09-26T06:21:25.172Z,50.13
2018-09-26T06:23:55.311Z,50.99
2018-09-26T06:26:24.236Z,50.51
2018-09-26T06:28:53.102Z,50.03
2018-09-26T06:31:22.063Z,49.91
2018-09-26T06:33:50.940Z,50.11
2018-09-26T06:36:19.846Z,48.65
2018-09-26T06:38:48.730Z,48.71
2018-09-26T06:41:17.663Z,47.77
2018-09-26T06:43:46.529Z,48.22
2018-09-26T06:46:15.487Z,47.84
2018-09-26T06:48:44.494Z,46.80
2018-09-26T06:51:13.370Z,47.52
2018-09-26T06:53:42.340Z,47.56
2018-09-26T06:56:11.250Z,46.70
2018-09-26T06:58:40.203Z,46.28
2018-09-26T07:01:09.139Z,46.14
2018-09-26T07:03:38.039Z,46.32
2018-09-26T07:06:06.891Z,46.30
2018-09-26T07:08:37.230Z,46.15
2018-09-26T07:11:06.196Z,46.03
2018-09-26T07:13:35.064Z,46.25
2018-09-26T07:16:03.954Z,45.54
2018-09-26T07:18:32.907Z,45.24
2018-09-26T07:21:01.793Z,44.66
2018-09-26T07:23:31.950Z,45.00
2018-09-26T07:26:00.872Z,44.27
2018-09-26T07:28:32.202Z,45.12
2018-09-26T07:31:01.062Z,44.53
2018-09-26T07:33:30.011Z,44.22
2018-09-26T07:35:59.107Z,43.92
2018-09-26T07:38:28.021Z,44.04
2018-09-26T07:40:58.160Z,43.61
2018-09-26T07:43:27.031Z,43.34
2018-09-26T07:45:55.969Z,43.76
2018-09-26T07:48:26.170Z,43.58
2018-09-26T07:50:56.342Z,43.43
2018-09-26T07:53:25.303Z,43.77
2018-09-26T07:55:54.260Z,43.99
2018-09-26T07:58:23.210Z,44.41
2018-09-26T08:00:52.109Z,43.26
2018-09-26T08:03:20.970Z,43.22
2018-09-26T08:05:49.870Z,42.99
2018-09-26T08:08:18.779Z,42.15
2018-09-26T08:10:49.107Z,42.38
2018-09-26T08:13:18.040Z,42.29
2018-09-26T08:15:46.917Z,42.09
2018-09-26T08:18:15.968Z,43.08
2018-09-26T08:20:44.742Z,42.19
2018-09-26T08:23:13.808Z,41.94
2018-09-26T08:25:44.101Z,41.06
2018-09-26T08:28:13.041Z,41.87
2018-09-26T08:30:41.921Z,41.75
2018-09-26T08:33:12.202Z,39.99
2018-09-26T08:35:41.134Z,40.58
2018-09-26T08:38:10.123Z,40.83
2018-09-26T08:40:40.327Z,40.47
2018-09-26T08:43:09.460Z,40.71
2018-09-26T08:45:38.612Z,40.04
2018-09-26T08:48:07.598Z,39.83
2018-09-26T08:50:36.559Z,40.73
2018-09-26T08:53:05.500Z,39.92
2018-09-26T08:55:35.699Z,40.79
2018-09-26T08:58:04.652Z,38.96
2018-09-26T09:00:35.905Z,38.73
2018-09-26T09:03:06.709Z,39.11
2018-09-26T09:05:35.652Z,37.41
2018-09-26T09:08:04.668Z,38.90
2018-09-26T09:10:33.682Z,38.18
2018-09-26T09:13:02.605Z,38.27
2018-09-26T09:15:31.571Z,37.94
2018-09-26T09:18:00.512Z,37.69
2018-09-26T09:20:29.409Z,37.04
2018-09-26T09:22:58.330Z,36.83
2018-09-26T09:25:27.200Z,35.98
2018-09-26T09:27:56.088Z,35.66
2018-09-26T09:30:25.039Z,36.07
2018-09-26T09:32:53.919Z,34.31
2018-09-26T09:35:22.875Z,35.21
2018-09-26T09:37:51.998Z,35.42
2018-09-26T09:40:21.041Z,34.94
2018-09-26T09:42:49.892Z,34.44
2018-09-26T09:45:18.759Z,34.70
2018-09-26T09:47:47.623Z,35.04
2018-09-26T09:50:16.485Z,35.09
2018-09-26T09:52:46.807Z,34.84
2018-09-26T09:55:15.684Z,35.94
2018-09-26T09:57:44.570Z,35.85
2018-09-26T10:00:13.471Z,35.21
2018-09-26T10:02:42.373Z,34.42
2018-09-26T10:05:11.319Z,34.51
2018-09-26T10:07:42.679Z,33.75
2018-09-26T10:10:11.579Z,34.79
2018-09-26T10:12:40.583Z,35.70
2018-09-26T10:15:09.507Z,35.88
2018-09-26T10:17:38.553Z,35.05
2018-09-26T10:20:07.413Z,35.01
2018-09-26T10:22:36.256Z,35.86
2018-09-26T10:25:05.194Z,35.49
2018-09-26T10:27:35.666Z,35.12
2018-09-26T10:30:04.812Z,35.13
2018-09-26T10:32:33.704Z,34.96
2018-09-26T10:35:03.946Z,35.68
2018-09-26T10:37:32.676Z,34.26
2018-09-26T10:40:01.496Z,34.26
2018-09-26T10:42:31.655Z,34.67
2018-09-26T10:45:00.423Z,34.09
2018-09-26T10:47:29.292Z,34.84
2018-09-26T10:49:59.595Z,32.83
2018-09-26T10:52:28.511Z,33.42
2018-09-26T10:54:57.385Z,32.93
2018-09-26T10:57:27.601Z,33.58
2018-09-26T10:59:56.528Z,34.30
2018-09-26T11:02:25.369Z,33.35
2018-09-26T11:04:55.548Z,33.34
2018-09-26T11:07:24.656Z,34.34
2018-09-26T11:09:54.011Z,34.10
2018-09-26T11:12:22.912Z,34.77
2018-09-26T11:14:51.765Z,32.86
2018-09-26T11:17:20.801Z,33.47
2018-09-26T11:19:50.955Z,32.78
2018-09-26T11:22:19.881Z,32.44
2018-09-26T11:24:48.805Z,32.43
2018-09-26T11:27:18.978Z,32.75
2018-09-26T11:29:47.851Z,33.50
2018-09-26T11:32:16.677Z,33.29
2018-09-26T11:34:45.557Z,32.94
2018-09-26T11:37:14.343Z,33.97
2018-09-26T11:39:43.241Z,32.60
2018-09-26T11:42:12.132Z,31.73
2018-09-26T11:44:41.090Z,31.31
2018-09-26T11:47:09.856Z,31.64
2018-09-26T11:49:38.716Z,33.09
2018-09-26T11:52:07.722Z,33.29
2018-09-26T11:54:36.543Z,33.76
2018-09-26T11:57:05.424Z,32.58
2018-09-26T11:59:34.378Z,31.84
2018-09-26T12:02:03.280Z,31.74
2018-09-26T12:04:32.081Z,32.25
2018-09-26T12:07:00.902Z,32.22
2018-09-26T12:09:29.765Z,31.97
2018-09-26T12:11:58.648Z,31.54
2018-09-26T12:14:27.528Z,33.02
2018-09-26T12:16:56.379Z,32.64
2018-09-26T12:19:25.279Z,31.78
2018-09-26T12:21:54.151Z,32.21
2018-09-26T12:24:23.123Z,31.97
2018-09-26T12:26:53.568Z,32.50
2018-09-26T12:29:22.441Z,32.66
2018-09-26T12:31:51.281Z,31.93
2018-09-26T12:34:20.340Z,31.44
2018-09-26T12:36:49.256Z,30.61
2018-09-26T12:39:18.310Z,31.82
2018-09-26T12:41:47.232Z,31.60
2018-09-26T12:44:16.129Z,32.15
2018-09-26T12:46:45.024Z,32.36
2018-09-26T12:49:15.119Z,31.31
2018-09-26T12:51:43.986Z,31.50
2018-09-26T12:54:12.847Z,33.06
2018-09-26T12:56:41.750Z,33.37
2018-09-26T12:59:12.063Z,32.97
2018-09-26T13:01:40.966Z,32.80
2018-09-26T13:04:10.156Z,30.96
2018-09-26T13:06:39.007Z,30.16
2018-09-26T13:09:08.311Z,30.52
2018-09-26T13:11:37.241Z,31.47
2018-09-26T13:14:06.171Z,31.92
2018-09-26T13:16:35.064Z,32.15
2018-09-26T13:19:04.026Z,31.93
2018-09-26T13:21:32.931Z,31.54
2018-09-26T13:24:01.837Z,29.84
2018-09-26T13:26:30.728Z,30.19
2018-09-26T13:29:00.996Z,31.42
2018-09-26T13:31:30.024Z,32.66
2018-09-26T13:33:58.882Z,33.00
2018-09-26T13:36:27.838Z,33.17
2018-09-26T13:38:56.937Z,32.49
2018-09-26T13:41:25.945Z,31.86
2018-09-26T13:43:55.227Z,30.08
2018-09-26T13:46:24.655Z,29.11
2018-09-26T13:48:53.508Z,30.44
2018-09-26T13:51:22.386Z,31.19
2018-09-26T13:53:52.602Z,31.11
2018-09-26T13:56:21.593Z,30.63
2018-09-26T13:58:50.506Z,29.59
2018-09-26T14:01:19.552Z,29.82
2018-09-26T14:03:48.471Z,29.25
2018-09-26T14:06:17.419Z,29.48
2018-09-26T14:08:46.388Z,30.12
2018-09-26T14:11:15.278Z,29.94
2018-09-26T14:13:44.222Z,30.38
2018-09-26T14:16:13.188Z,31.10
2018-09-26T14:18:42.085Z,32.79
2018-09-26T14:21:11.081Z,31.56
2018-09-26T14:23:40.121Z,29.59
2018-09-26T14:26:09.001Z,30.37
2018-09-26T14:28:37.934Z,29.15
2018-09-26T14:31:06.949Z,29.33
2018-09-26T14:33:35.983Z,30.75
2018-09-26T14:36:04.849Z,30.44
2018-09-26T14:38:33.748Z,30.93
2018-09-26T14:41:02.656Z,31.81
2018-09-26T14:43:32.828Z,30.55
2018-09-26T14:46:01.862Z,28.91
2018-09-26T14:48:30.784Z,29.14
2018-09-26T14:50:59.687Z,28.63
2018-09-26T14:53:28.680Z,27.80
2018-09-26T14:55:57.576Z,29.86
2018-09-26T14:58:26.432Z,30.69
2018-09-26T15:00:56.838Z,30.74
2018-09-26T15:03:27.141Z,32.24
2018-09-26T15:05:56.054Z,33.12
2018-09-26T15:08:25.186Z,33.68
2018-09-26T15:10:54.106Z,34.17
2018-09-26T15:13:22.942Z,34.75
2018-09-26T15:15:51.840Z,34.91
2018-09-26T15:18:20.827Z,35.55
2018-09-26T15:20:49.652Z,35.49
2018-09-26T15:23:18.600Z,35.26
2018-09-26T15:25:47.403Z,35.14
2018-09-26T15:28:16.436Z,34.83
2018-09-26T15:30:45.261Z,34.12
2018-09-26T15:33:14.134Z,34.17
2018-09-26T15:35:43.074Z,34.19
2018-09-26T15:38:12.029Z,33.94
2018-09-26T15:40:41.095Z,34.52
2018-09-26T15:43:11.115Z,34.76
2018-09-26T15:45:40.012Z,34.32
2018-09-26T15:48:09.143Z,34.98
2018-09-26T15:50:39.258Z,35.33
2018-09-26T15:53:08.297Z,34.92
2018-09-26T15:55:37.295Z,35.14
2018-09-26T15:58:06.286Z,35.29
2018-09-26T16:00:35.227Z,35.63
2018-09-26T16:03:05.720Z,36.30
2018-09-26T16:05:34.646Z,37.11
2018-09-26T16:08:03.544Z,37.08
2018-09-26T16:10:32.456Z,37.19
2018-09-26T16:13:01.328Z,37.55
2018-09-26T16:15:30.265Z,37.45
2018-09-26T16:17:59.193Z,37.97
2018-09-26T16:20:28.085Z,38.22
2018-09-26T16:22:57.063Z,37.98
2018-09-26T16:25:25.979Z,38.75
2018-09-26T16:27:54.846Z,38.88
2018-09-26T16:30:23.886Z,39.02
2018-09-26T16:32:52.694Z,39.04
2018-09-26T16:35:21.786Z,39.91
2018-09-26T16:37:52.532Z,39.80
2018-09-26T16:40:21.643Z,39.85
2018-09-26T16:42:50.540Z,39.59
2018-09-26T16:45:20.819Z,39.04
2018-09-26T16:47:49.788Z,38.80
2018-09-26T16:50:18.730Z,39.22
2018-09-26T16:52:50.340Z,38.86
2018-09-26T16:55:19.276Z,39.20
2018-09-26T16:57:48.151Z,39.21
2018-09-26T17:00:17.117Z,39.67
2018-09-26T17:02:46.040Z,39.87
2018-09-26T17:05:14.932Z,39.97
2018-09-26T17:07:43.858Z,39.71
2018-09-26T17:10:12.754Z,39.84
2018-09-26T17:12:41.725Z,39.13
2018-09-26T17:15:10.745Z,39.12
2018-09-26T17:17:39.595Z,38.95
2018-09-26T17:20:08.509Z,39.31
2018-09-26T17:22:37.398Z,39.33
2018-09-26T17:25:06.291Z,39.63
2018-09-26T17:27:35.147Z,39.62
2018-09-26T17:30:04.258Z,39.88
2018-09-26T17:32:33.189Z,40.35
2018-09-26T17:35:02.156Z,40.36
2018-09-26T17:37:31.110Z,40.50
2018-09-26T17:40:00.073Z,40.72
2018-09-26T17:42:28.927Z,41.21
2018-09-26T17:44:57.968Z,40.83
2018-09-26T17:47:28.202Z,40.84
2018-09-26T17:49:57.140Z,40.91
2018-09-26T17:52:27.095Z,40.92
2018-09-26T17:54:55.991Z,40.95
2018-09-26T17:57:24.951Z,40.56
2018-09-26T17:59:53.827Z,40.54
2018-09-26T18:02:22.721Z,40.42
2018-09-26T18:04:51.607Z,40.93
2018-09-26T18:07:20.565Z,40.84
2018-09-26T18:09:50.796Z,41.05
2018-09-26T18:12:19.822Z,40.76
2018-09-26T18:14:48.726Z,40.75
2018-09-26T18:17:17.755Z,40.88
2018-09-26T18:19:46.708Z,40.57
2018-09-26T18:22:15.605Z,41.06
2018-09-26T18:24:44.548Z,41.05
2018-09-26T18:27:13.483Z,40.99
2018-09-26T18:29:43.718Z,41.41
2018-09-26T18:32:12.695Z,41.88
2018-09-26T18:34:41.787Z,41.82
2018-09-26T18:37:10.669Z,41.48
2018-09-26T18:39:39.683Z,41.52
2018-09-26T18:42:08.593Z,41.52
2018-09-26T18:44:37.504Z,41.39
2018-09-26T18:47:06.432Z,41.30
2018-09-26T18:49:35.364Z,41.42
2018-09-26T18:52:04.341Z,41.53
2018-09-26T18:54:33.338Z,41.85
2018-09-26T18:57:02.246Z,41.80
2018-09-26T18:59:31.167Z,42.36
2018-09-26T19:02:01.344Z,42.22
2018-09-26T19:04:30.301Z,42.25
2018-09-26T19:06:59.208Z,42.60
2018-09-26T19:09:29.348Z,43.00
2018-09-26T19:11:58.243Z,42.91
2018-09-26T19:14:27.199Z,43.26
2018-09-26T19:16:57.327Z,42.89
2018-09-26T19:19:26.221Z,43.25
2018-09-26T19:21:55.128Z,43.45
2018-09-26T19:24:24.154Z,42.99
2018-09-26T19:26:53.163Z,42.93
2018-09-26T19:29:22.098Z,43.39
2018-09-26T19:31:51.100Z,43.36
2018-09-26T19:34:20.021Z,43.52
2018-09-26T19:36:48.930Z,43.19
2018-09-26T19:39:17.890Z,43.33
2018-09-26T19:41:46.767Z,44.21
2018-09-26T19:44:15.615Z,43.47
2018-09-26T19:46:44.544Z,43.61
2018-09-26T19:49:13.427Z,43.71
2018-09-26T19:51:42.320Z,43.24
2018-09-26T19:54:11.250Z,43.19
2018-09-26T19:56:40.090Z,43.16
2018-09-26T19:59:09.032Z,43.27
2018-09-26T20:01:38.149Z,43.74
2018-09-26T20:04:07.075Z,43.59
2018-09-26T20:06:36.048Z,43.63
2018-09-26T20:09:07.786Z,43.78
2018-09-26T20:11:36.741Z,44.17
2018-09-26T20:14:05.843Z,44.33
2018-09-26T20:16:34.914Z,44.41
2018-09-26T20:19:04.047Z,44.50
2018-09-26T20:21:32.917Z,44.82
2018-09-26T20:24:01.873Z,44.61
2018-09-26T20:26:30.860Z,44.40
2018-09-26T20:28:59.982Z,44.37
2018-09-26T20:31:29.234Z,44.51
2018-09-26T20:33:58.136Z,44.20
2018-09-26T20:36:27.080Z,44.01
2018-09-26T20:38:56.063Z,43.61
2018-09-26T20:41:25.140Z,43.54
2018-09-26T20:43:54.093Z,42.96
2018-09-26T20:46:23.050Z,42.31
2018-09-26T20:48:52.104Z,42.40
2018-09-26T20:51:21.084Z,42.56
2018-09-26T20:53:50.057Z,42.78
2018-09-26T20:56:18.978Z,43.14
2018-09-26T20:58:47.946Z,43.20
2018-09-26T21:01:16.939Z,43.46
2018-09-26T21:03:45.854Z,43.07
2018-09-26T21:06:14.796Z,43.24
2018-09-26T21:08:43.772Z,43.33
2018-09-26T21:11:12.784Z,42.89
2018-09-26T21:13:41.716Z,42.45
2018-09-26T21:16:10.731Z,42.43
2018-09-26T21:18:39.711Z,42.06
2018-09-26T21:21:08.718Z,42.44
2018-09-26T21:23:37.642Z,42.13
2018-09-26T21:26:06.574Z,41.74
2018-09-26T21:28:35.447Z,41.44
2018-09-26T21:31:04.368Z,41.33
2018-09-26T21:33:33.315Z,41.61
2018-09-26T21:36:02.176Z,41.73
2018-09-26T21:38:31.079Z,41.60
2018-09-26T21:40:59.936Z,41.68
2018-09-26T21:43:28.828Z,41.32
2018-09-26T21:45:57.777Z,41.53
2018-09-26T21:48:26.662Z,41.56
2018-09-26T21:50:55.544Z,41.68
2018-09-26T21:53:24.692Z,41.85
2018-09-26T21:55:53.576Z,41.32
2018-09-26T21:58:22.445Z,41.73
2018-09-26T22:00:56.439Z,41.86
2018-09-26T22:03:25.282Z,41.59
2018-09-26T22:05:55.387Z,42.69
2018-09-26T22:08:24.251Z,42.09
2018-09-26T22:10:53.120Z,42.13
2018-09-26T22:13:22.641Z,42.12
2018-09-26T22:15:51.699Z,41.66
2018-09-26T22:18:20.554Z,41.67
2018-09-26T22:20:49.503Z,41.61
2018-09-26T22:23:18.399Z,41.50
2018-09-26T22:25:47.262Z,42.12
2018-09-26T22:28:16.204Z,41.81
2018-09-26T22:30:45.068Z,41.86
2018-09-26T22:33:13.907Z,42.08
2018-09-26T22:35:42.919Z,41.93
2018-09-26T22:38:11.787Z,42.02
2018-09-26T22:40:40.655Z,42.14
2018-09-26T22:43:09.619Z,41.79
2018-09-26T22:45:38.562Z,41.77
2018-09-26T22:48:07.480Z,42.47
2018-09-26T22:50:36.423Z,42.18
2018-09-26T22:53:05.296Z,42.53
2018-09-26T22:55:34.122Z,42.83
2018-09-26T22:58:03.123Z,43.24
2018-09-26T23:00:31.987Z,43.46
2018-09-26T23:03:00.888Z,44.14
2018-09-26T23:05:30.397Z,44.21
2018-09-26T23:07:59.355Z,44.20
2018-09-26T23:10:28.246Z,43.69
2018-09-26T23:12:59.600Z,43.46
2018-09-26T23:15:28.498Z,43.65
2018-09-26T23:17:57.345Z,43.51
2018-09-26T23:20:26.223Z,43.39
2018-09-26T23:22:55.135Z,42.94
2018-09-26T23:25:23.997Z,43.08
2018-09-26T23:27:52.963Z,42.47
2018-09-26T23:30:21.873Z,43.53
2018-09-26T23:32:50.847Z,43.64
2018-09-26T23:35:19.779Z,43.67
2018-09-26T23:37:48.675Z,43.27
2018-09-26T23:40:17.585Z,43.16
2018-09-26T23:42:46.499Z,42.91
2018-09-26T23:45:15.452Z,42.98
2018-09-26T23:47:44.320Z,42.65
2018-09-26T23:50:13.336Z,42.57
2018-09-26T23:52:42.169Z,42.56
2018-09-26T23:55:11.030Z,42.64
2018-09-26T23:57:39.890Z,42.32
